M I D A S
Marine Information and Data Acquisition System
Tripno 675 of the Zeeleeuw from 2004-03-24 07:31:20 to 2004-03-24 15:50:46
Back to CruiseResearch ActivitiesStationsMapUnderway DataData graphs

EquipmentUnitsComment
TimeDGPSUTC
LatitudeDGPSDM.mWGS84
LongitudeDGPSDM.mWGS84
TemperatureSBE03/SBE38deg celciusITS90
ConductivitySBE21S/mITS90
SalinitySBE21 Practical Salinity Units
ChlorophylAChelsea fluorimeterg/lCalibrated in Aceton
Missing or incorrect values are displayed as -999
Sea surface data collected by the RV Zeeleeuw from 2004-03-24 07:31:20 to 2004-03-24 15:50:46
Time Latitude Longitude Temperature Conductivity Salinity ChlorophylA
2004-03-24 07:32:24 51°13.594 2°56.096 14.699989 0.008404 0.05066 4.645965
2004-03-24 07:33:24 51°13.581 2°56.126 14.722882 0.008404 0.050662 4.645965
2004-03-24 07:34:24 51°13.558 2°56.199 14.699989 0.008404 0.050664 4.612255
2004-03-24 07:35:24 51°13.514 2°56.241 14.604749 0.008404 0.050668 4.645965
2004-03-24 07:36:24 51°13.532 2°56.249 9.178498 3.371086 27.083894 25.984016
2004-03-24 07:37:24 51°13.53 2°56.238 8.693111 2.78179 25.307638 25.916597
2004-03-24 07:38:24 51°13.537 2°56.2 8.476202 2.904601 26.751493 30.2314
2004-03-24 07:39:24 51°13.586 2°56.06 8.502798 2.991228 27.737742 35.726033
2004-03-24 07:40:24 51°13.649 2°55.91 8.475866 2.78937 25.673125 33.400084
2004-03-24 07:41:24 51°13.714 2°55.766 8.450797 2.803154 25.835833 36.872153
2004-03-24 07:42:24 51°13.809 2°55.644 8.404041 2.810205 25.930481 41.928563
2004-03-24 07:43:24 51°13.925 2°55.559 8.365622 2.796105 25.835693 33.130409
2004-03-24 07:44:24 51°14.054 2°55.465 8.324725 3.00344 27.992577 36.737315
2004-03-24 07:45:24 51°14.194 2°55.352 8.28934 3.093135 28.950119 37.445212
2004-03-24 07:46:24 51°14.319 2°55.155 8.288088 3.021021 28.226693 35.961999
2004-03-24 07:47:24 51°14.467 2°54.927 8.233841 2.964178 27.635802 29.894306
2004-03-24 07:48:24 51°14.659 2°54.762 8.026307 3.337554 31.705261 35.388939
2004-03-24 07:49:24 51°14.862 2°54.65 7.993903 3.477973 33.258593 36.231674
2004-03-24 07:50:24 51°15.062 2°54.546 7.950542 3.495357 33.478444 29.725759
2004-03-24 07:51:24 51°15.256 2°54.447 7.920763 3.503785 33.58339 29.017862
2004-03-24 07:52:24 51°15.461 2°54.385 7.912965 3.500414 33.577156 30.399947
2004-03-24 07:53:24 51°15.672 2°54.333 7.909768 3.514743 33.745264 40.108255
2004-03-24 07:54:24 51°15.887 2°54.346 7.873378 3.518641 33.794141 37.714888
2004-03-24 07:55:24 51°16.084 2°54.268 7.818634 3.509054 33.750766 34.445076
2004-03-24 07:56:24 51°16.218 2°54.255 7.859951 3.506841 33.706918 34.040563
2004-03-24 07:57:24 51°16.255 2°54.301 7.83789 3.526227 33.927905 28.815606
2004-03-24 07:58:25 51°16.24 2°54.272 7.828869 3.524436 33.920944 31.310101
2004-03-24 07:59:24 51°16.224 2°54.255 7.834447 3.525174 33.935344 29.624631
2004-03-24 08:00:24 51°16.208 2°54.252 7.829306 3.526228 33.944991 29.894306
2004-03-24 08:01:24 51°16.197 2°54.254 7.833283 3.524542 33.929393 32.928153
2004-03-24 08:02:24 51°16.19 2°54.257 7.830906 3.526649 33.953572 35.119264
2004-03-24 08:03:24 51°16.19 2°54.258 7.823291 3.49736 33.641113 26.927879
2004-03-24 08:04:24 51°16.194 2°54.258 7.831003 3.509687 33.775336 35.119264
2004-03-24 08:05:24 51°16.197 2°54.258 7.829645 3.521697 33.906272 30.80446
2004-03-24 08:06:24 51°16.218 2°54.27 7.826105 3.525701 33.951567 34.546204
2004-03-24 08:07:24 51°16.319 2°54.156 7.816985 3.521381 33.91428 43.276939
2004-03-24 08:08:24 51°16.455 2°53.884 7.794181 3.515797 33.859383 31.41123
2004-03-24 08:09:24 51°16.588 2°53.58 7.737135 3.520645 33.960993 30.669623
2004-03-24 08:10:24 51°16.672 2°53.228 7.711825 3.516536 33.95367 36.771024
2004-03-24 08:11:24 51°16.768 2°52.89 7.748208 3.518432 33.964215 31.815742
2004-03-24 08:12:24 51°16.884 2°52.589 7.809029 3.517273 33.908541 42.467913
2004-03-24 08:13:24 51°17.06 2°52.381 7.818149 3.524858 33.942545 29.590922
2004-03-24 08:14:24 51°17.247 2°52.193 7.809174 3.52549 33.957458 34.950717
2004-03-24 08:15:24 51°17.44 2°52.018 7.738252 3.520434 33.945676 27.635777
2004-03-24 08:16:24 51°17.613 2°51.79 7.662486 3.515272 33.956448 29.287537
2004-03-24 08:17:24 51°17.782 2°51.556 7.60912 3.514851 34.019927 25.950306
2004-03-24 08:18:24 51°17.949 2°51.321 7.548694 3.514641 34.074409 36.636187
2004-03-24 08:19:24 51°18.087 2°51.127 7.503666 3.505581 34.032742 45.198375
2004-03-24 08:20:24 51°18.213 2°50.945 7.478994 3.504528 34.047766 38.894717
2004-03-24 08:21:24 51°18.38 2°50.863 7.487089 3.505371 34.063474 39.366648
2004-03-24 08:22:24 51°18.459 2°50.932 7.492794 3.500103 33.99834 33.804597
2004-03-24 08:23:24 51°18.487 2°50.989 7.501765 3.506424 34.067419 38.018272
2004-03-24 08:24:24 51°18.499 2°51.014 7.509418 3.510006 34.09536 27.602067
2004-03-24 08:25:24 51°18.496 2°51.02 7.517899 3.510954 34.09238 31.916871
2004-03-24 08:26:24 51°18.493 2°51.019 7.508638 3.507056 34.055258 30.433657
2004-03-24 08:27:24 51°18.489 2°51.015 7.507858 3.51106 34.100951 32.355093
2004-03-24 08:28:24 51°18.483 2°51.012 7.506249 3.510428 34.096605 27.332392
2004-03-24 08:29:24 51°18.477 2°51.009 7.506981 3.510638 34.098054 27.332392
2004-03-24 08:30:24 51°18.47 2°51.006 7.506591 3.510744 34.102497 31.748324
2004-03-24 08:31:24 51°18.462 2°51.002 7.50352 3.510428 34.099911 30.871879
2004-03-24 08:32:24 51°18.454 2°50.996 7.505762 3.510006 34.097013 31.006717
2004-03-24 08:33:24 51°18.446 2°50.985 7.506688 3.510217 34.100115 28.950443
2004-03-24 08:34:24 51°18.437 2°50.971 7.504543 3.510849 34.104461 31.849452
2004-03-24 08:35:24 51°18.427 2°50.953 7.517606 3.510744 34.100844 38.557623
2004-03-24 08:36:24 51°18.477 2°50.938 7.526232 3.511692 34.097862 29.1527
2004-03-24 08:37:24 51°18.571 2°51.127 7.517996 3.511797 34.100651 37.344084
2004-03-24 08:38:24 51°18.652 2°51.42 7.524722 3.51106 34.095169 31.883161
2004-03-24 08:39:24 51°18.734 2°51.726 7.515754 3.510954 34.091554 28.647059
2004-03-24 08:40:24 51°18.818 2°52.031 7.509613 3.510428 34.091649 32.928153
2004-03-24 08:41:24 51°18.903 2°52.338 7.517168 3.510112 34.090715 36.905862
2004-03-24 08:42:24 51°18.98 2°52.648 7.522772 3.510638 34.089794 31.849452
2004-03-24 08:43:24 51°19.052 2°52.959 7.538706 3.511165 34.08227 35.051845
2004-03-24 08:44:24 51°19.124 2°53.27 7.555611 3.512008 34.077337 38.793589
2004-03-24 08:45:24 51°19.197 2°53.58 7.567154 3.512429 34.072811 30.602204
2004-03-24 08:46:24 51°19.27 2°53.887 7.630773 3.510532 34.022728 32.827024
2004-03-24 08:47:24 51°19.341 2°54.195 7.671628 3.507266 33.931777 38.389076
2004-03-24 08:48:24 51°19.412 2°54.499 7.732764 3.495992 33.752775 33.872016
2004-03-24 08:49:24 51°19.483 2°54.803 7.768553 3.478924 33.525337 34.74846
2004-03-24 08:50:24 51°19.553 2°55.108 7.785445 3.476395 33.479754 31.613486
2004-03-24 08:51:24 51°19.624 2°55.41 7.809466 3.473445 33.424103 33.265247
2004-03-24 08:52:24 51°19.694 2°55.712 7.81553 3.46291 33.299522 32.624768
2004-03-24 08:53:24 51°19.758 2°56.017 7.807234 3.448794 33.149591 32.220255
2004-03-24 08:54:24 51°19.818 2°56.325 7.785785 3.43689 33.032866 32.017999
2004-03-24 08:55:24 51°19.88 2°56.63 7.760979 3.42014 32.874706 33.400084
2004-03-24 08:56:24 51°19.937 2°56.936 7.729266 3.40771 32.764933 41.52405
2004-03-24 08:57:24 51°19.999 2°57.237 7.716538 3.397177 32.676109 35.726033
2004-03-24 08:58:24 51°20.061 2°57.54 7.698995 3.388961 32.603322 37.377794
2004-03-24 08:59:24 51°20.122 2°57.84 7.694281 3.383694 32.559642 41.389212
2004-03-24 09:00:24 51°20.183 2°58.141 7.675663 3.378954 32.512952 36.029418
2004-03-24 09:01:24 51°20.245 2°58.441 7.644589 3.36031 32.345148 40.9847
2004-03-24 09:02:24 51°20.308 2°58.743 7.621675 3.348092 32.23726 43.546614
2004-03-24 09:03:24 51°20.37 2°59.046 7.608973 3.336506 32.129841 34.445076
2004-03-24 09:04:24 51°20.429 2°59.354 7.594858 3.330292 32.072004 43.007264
2004-03-24 09:05:24 51°20.494 2°59.657 7.592035 3.32629 32.04474 52.344768
2004-03-24 09:06:24 51°20.554 2°59.964 7.576114 3.325974 32.046783 36.265383
2004-03-24 09:07:24 51°20.615 3°0.271 7.559994 3.325974 32.056851 47.423195
2004-03-24 09:08:24 51°20.678 3°0.577 7.528279 3.321866 32.038507 31.579777
2004-03-24 09:09:24 51°20.742 3°0.883 7.499425 3.316495 32.007396 45.670306
2004-03-24 09:10:24 51°20.805 3°1.189 7.481677 3.308385 31.941517 37.0407
2004-03-24 09:11:24 51°20.869 3°1.495 7.484261 3.300908 31.872306 53.592016
2004-03-24 09:12:24 51°20.93 3°1.804 7.479628 3.297537 31.834695 34.883298
2004-03-24 09:13:24 51°20.995 3°2.108 7.482506 3.297432 31.833568 43.816289
2004-03-24 09:14:24 51°21.055 3°2.418 7.490112 3.299854 31.858718 43.411777
2004-03-24 09:15:24 51°21.115 3°2.726 7.505908 3.30333 31.882782 45.569178
2004-03-24 09:16:24 51°21.178 3°3.032 7.512294 3.307859 31.921962 46.61417
2004-03-24 09:17:24 51°21.24 3°3.341 7.507517 3.308912 31.927817 45.535469
2004-03-24 09:18:24 51°21.301 3°3.65 7.497231 3.306384 31.908506 41.861144
2004-03-24 09:19:24 51°21.363 3°3.959 7.486699 3.302066 31.870804 34.310238
2004-03-24 09:20:24 51°21.419 3°4.27 7.480896 3.297116 31.828645 52.681862
2004-03-24 09:21:25 51°21.459 3°4.593 7.462704 3.287743 31.738369 41.321794
2004-03-24 09:22:24 51°21.542 3°4.884 7.468801 3.292903 31.798983 34.546204
2004-03-24 09:23:24 51°21.6 3°5.197 7.47046 3.296695 31.842655 51.839127
2004-03-24 09:24:24 51°21.658 3°5.508 7.487236 3.30649 31.935927 30.096563
2004-03-24 09:25:24 51°21.716 3°5.819 7.490307 3.317127 32.035874 44.389349
2004-03-24 09:26:24 51°21.776 3°6.133 7.483968 3.314389 32.010432 42.130819
2004-03-24 09:27:24 51°21.835 3°6.445 7.462363 3.306595 31.939377 47.558033
2004-03-24 09:28:24 51°21.893 3°6.759 7.456655 3.29659 31.843844 55.446033
2004-03-24 09:29:24 51°21.947 3°7.074 7.441872 3.288796 31.774283 31.849452
2004-03-24 09:30:24 51°21.994 3°7.394 7.439432 3.284794 31.741444 47.591742
2004-03-24 09:31:24 51°22.042 3°7.713 7.426987 3.276158 31.650516 37.209247
2004-03-24 09:32:24 51°22.083 3°8.035 7.422058 3.263204 31.521827 42.973554
2004-03-24 09:33:24 51°22.11 3°8.361 7.408829 3.252567 31.410306 28.950443
2004-03-24 09:34:24 51°22.137 3°8.69 7.38246 3.237087 31.266768 44.018546
2004-03-24 09:35:24 51°22.166 3°9.018 7.385488 3.231927 31.220674 40.546477
2004-03-24 09:36:24 51°22.194 3°9.35 7.379236 3.222133 31.121972 34.546204
2004-03-24 09:37:24 51°22.224 3°9.682 7.390079 3.220027 31.091135 37.512631
2004-03-24 09:38:24 51°22.256 3°10.017 7.391495 3.216762 31.056235 47.389486
2004-03-24 09:39:24 51°22.287 3°10.354 7.394229 3.217605 31.059958 44.389349
2004-03-24 09:40:24 51°22.323 3°10.692 7.377283 3.221185 31.095965 28.040289
2004-03-24 09:41:24 51°22.358 3°11.03 7.362725 3.194332 30.833066 33.06299
2004-03-24 09:42:24 51°22.393 3°11.362 7.344988 3.186751 30.766284 39.198101
2004-03-24 09:43:24 51°22.427 3°11.694 7.340785 3.18296 30.736245 47.220939
2004-03-24 09:44:24 51°22.464 3°12.022 7.358035 3.183592 30.734772 51.502033
2004-03-24 09:45:24 51°22.501 3°12.351 7.34963 3.183065 30.72541 58.614717
2004-03-24 09:46:24 51°22.536 3°12.681 7.34836 3.17938 30.698731 34.310238
2004-03-24 09:47:24 51°22.573 3°12.983 7.366536 3.193806 30.82819 40.310512
2004-03-24 09:48:24 51°22.605 3°13.138 7.362237 3.191384 30.807557 39.332939
2004-03-24 09:49:24 51°22.628 3°13.186 7.379774 3.193911 30.826318 48.029965
2004-03-24 09:50:24 51°22.618 3°13.173 7.408047 3.202546 30.898309 44.793862
2004-03-24 09:51:24 51°22.607 3°13.168 7.413759 3.21434 31.011508 44.659024
2004-03-24 09:52:24 51°22.6 3°13.167 7.428403 3.218131 31.042963 41.422922
2004-03-24 09:53:24 51°22.597 3°13.167 7.43909 3.222027 31.07327 36.973281
2004-03-24 09:54:24 51°22.596 3°13.169 7.441823 3.223923 31.086724 42.029691
2004-03-24 09:55:24 51°22.595 3°13.171 7.435235 3.218131 31.022632 46.479332
2004-03-24 09:56:24 51°22.596 3°13.175 7.432941 3.212971 30.974323 29.287537
2004-03-24 09:57:24 51°22.598 3°13.179 7.430013 3.208232 30.931253 43.78258
2004-03-24 09:58:24 51°22.604 3°13.189 7.433527 3.206863 30.91364 50.693007
2004-03-24 09:59:24 51°22.648 3°13.293 7.448508 3.207074 30.913638 51.940255
2004-03-24 10:00:24 51°22.769 3°13.52 7.45124 3.216762 30.994488 31.546067
2004-03-24 10:01:24 51°22.917 3°13.755 7.412588 3.203283 30.873186 41.186956
2004-03-24 10:02:24 51°23.074 3°13.986 7.393741 3.18854 30.73981 39.366648
2004-03-24 10:03:24 51°23.23 3°14.21 7.390127 3.188119 30.732331 48.26593
2004-03-24 10:04:24 51°23.391 3°14.426 7.402872 3.180748 30.664122 42.535332
2004-03-24 10:05:24 51°23.56 3°14.631 7.36893 3.179064 30.657316 40.209383
2004-03-24 10:06:24 51°23.733 3°14.822 7.353295 3.180222 30.683844 49.41205
2004-03-24 10:07:24 51°23.904 3°15.011 7.328175 3.162427 30.520612 38.861007
2004-03-24 10:08:24 51°24.074 3°15.198 7.302995 3.13863 30.284322 48.164802
2004-03-24 10:09:24 51°24.246 3°15.384 7.277561 3.12031 30.109394 39.26552
2004-03-24 10:10:24 51°24.417 3°15.578 7.262639 3.110097 30.015791 47.018683
2004-03-24 10:11:24 51°24.578 3°15.795 7.266015 3.099674 29.911146 33.568631
2004-03-24 10:12:24 51°24.738 3°16.028 7.299279 3.094831 29.848566 46.715298
2004-03-24 10:13:24 51°24.898 3°16.273 7.343424 3.142842 30.319682 29.11899
2004-03-24 10:14:24 51°25.051 3°16.524 7.372202 3.157162 30.456246 33.737178
2004-03-24 10:15:24 51°25.203 3°16.773 7.390079 3.200966 30.876938 41.52405
2004-03-24 10:16:24 51°25.35 3°17.021 7.428403 3.214024 30.996092 47.052392
2004-03-24 10:17:24 51°25.496 3°17.268 7.445141 3.214129 30.976917 42.771298
2004-03-24 10:18:24 51°25.644 3°17.517 7.410098 3.208127 30.925626 36.771024
2004-03-24 10:19:24 51°25.787 3°17.674 7.429281 3.20244 30.88593 35.523777
2004-03-24 10:20:24 51°25.884 3°17.732 7.465387 3.202861 30.857462 42.63646
2004-03-24 10:21:24 51°25.92 3°17.805 7.445482 3.20065 30.815194 41.186956
2004-03-24 10:22:24 51°25.912 3°17.826 7.442457 3.19886 30.817777 51.198648
2004-03-24 10:23:24 51°25.902 3°17.845 7.43909 3.198755 30.817401 52.479606
2004-03-24 10:24:24 51°25.893 3°17.866 7.433186 3.198544 30.818893 54.030238
2004-03-24 10:25:24 51°25.887 3°17.888 7.440017 3.198544 30.818145 38.69246
2004-03-24 10:26:24 51°25.882 3°17.907 7.449727 3.199281 30.815542 35.119264
2004-03-24 10:27:24 51°25.877 3°17.925 7.452459 3.199386 30.812929 54.906683
2004-03-24 10:28:24 51°25.873 3°17.94 7.455972 3.199491 30.811811 36.804734
2004-03-24 10:29:24 51°25.871 3°17.952 7.466509 3.199597 30.807705 53.423469
2004-03-24 10:30:24 51°25.869 3°17.96 7.478994 3.20086 30.807733 45.46805
2004-03-24 10:31:24 51°25.881 3°17.882 7.474556 3.201597 30.808869 48.198512
2004-03-24 10:32:24 51°25.879 3°17.598 7.456362 3.202124 30.829413 32.658477
2004-03-24 10:33:24 51°25.835 3°17.266 7.48075 3.213708 30.950655 48.434477
2004-03-24 10:34:24 51°25.797 3°16.929 7.46207 3.220552 31.019895 35.860871
2004-03-24 10:35:24 51°25.762 3°16.593 7.448361 3.218446 31.00645 33.501212
2004-03-24 10:36:24 51°25.722 3°16.257 7.448166 3.217183 31.008755 47.456905
2004-03-24 10:37:24 51°25.71 3°15.916 7.461094 3.222553 31.054781 67.008358
2004-03-24 10:38:24 51°25.691 3°15.573 7.463485 3.233084 31.163404 45.704016
2004-03-24 10:39:24 51°25.644 3°15.232 7.467143 3.243194 31.266801 32.557349
2004-03-24 10:40:24 51°25.556 3°14.906 7.470118 3.253725 31.380043 53.659435
2004-03-24 10:41:24 51°25.508 3°14.556 7.473825 3.265731 31.502999 44.793862
2004-03-24 10:42:24 51°25.453 3°14.201 7.467631 3.274578 31.597567 37.0407
2004-03-24 10:43:24 51°25.405 3°13.837 7.461533 3.28353 31.700987 47.524324
2004-03-24 10:44:24 51°25.361 3°13.472 7.463436 3.292061 31.793819 47.895127
2004-03-24 10:45:24 51°25.321 3°13.105 7.475239 3.305015 31.927879 52.176221
2004-03-24 10:46:24 51°25.297 3°12.737 7.478019 3.318181 32.061133 32.692187
2004-03-24 10:47:24 51°25.28 3°12.369 7.4945 3.331346 32.19129 36.973281
2004-03-24 10:48:24 51°25.27 3°12.002 7.500692 3.34388 32.31076 35.692324
2004-03-24 10:49:24 51°25.337 3°11.662 7.461533 3.352939 32.424347 48.603024
2004-03-24 10:50:24 51°25.43 3°11.345 7.443531 3.351359 32.438059 52.479606
2004-03-24 10:51:24 51°25.544 3°11.062 7.434698 3.350306 32.436194 44.052255
2004-03-24 10:52:24 51°25.683 3°10.846 7.418104 3.352202 32.457342 45.029828
2004-03-24 10:53:24 51°25.794 3°10.604 7.441286 3.356942 32.520881 33.534922
2004-03-24 10:54:24 51°25.909 3°10.371 7.439237 3.363683 32.586216 39.130683
2004-03-24 10:55:24 51°25.982 3°10.075 7.43992 3.368634 32.6323 35.557486
2004-03-24 10:56:24 51°26.037 3°9.757 7.449386 3.373269 32.686876 36.602477
2004-03-24 10:57:24 51°26.106 3°9.436 7.447581 3.377271 32.712446 35.726033
2004-03-24 10:58:24 51°26.163 3°9.093 7.459484 3.378008 32.71799 56.255059
2004-03-24 10:59:24 51°26.219 3°8.741 7.468704 3.37864 32.716846 40.243093
2004-03-24 11:00:24 51°26.324 3°8.462 7.481579 3.380642 32.724067 46.681589
2004-03-24 11:01:24 51°26.414 3°8.448 7.471728 3.376955 32.693189 47.793999
2004-03-24 11:02:24 51°26.443 3°8.47 7.470167 3.374322 32.668071 39.670033
2004-03-24 11:03:24 51°26.435 3°8.46 7.472801 3.37369 32.657323 51.906546
2004-03-24 11:04:24 51°26.423 3°8.44 7.491039 3.3739 32.654835 43.310648
2004-03-24 11:05:24 51°26.407 3°8.41 7.486699 3.374743 32.651221 40.512768
2004-03-24 11:06:24 51°26.393 3°8.378 7.481238 3.374111 32.653931 48.501896
2004-03-24 11:07:24 51°26.38 3°8.346 7.474215 3.374743 32.661509 41.928563
2004-03-24 11:08:25 51°26.366 3°8.316 7.475824 3.374427 32.663658 35.119264
2004-03-24 11:09:24 51°26.352 3°8.294 7.472362 3.3739 32.658794 43.411777
2004-03-24 11:10:24 51°26.349 3°8.282 7.468704 3.3739 32.660377 44.187093
2004-03-24 11:11:24 51°26.443 3°8.168 7.475776 3.373795 32.656079 51.164939
2004-03-24 11:12:24 51°26.598 3°7.962 7.465484 3.366632 32.579958 39.737452
2004-03-24 11:13:24 51°26.716 3°7.662 7.427427 3.329661 32.199761 51.805418
2004-03-24 11:14:24 51°26.836 3°7.361 7.39628 3.325133 32.183983 29.826888
2004-03-24 11:15:24 51°26.96 3°7.063 7.339856 3.323553 32.206128 31.006717
2004-03-24 11:16:24 51°27.085 3°6.767 7.262639 3.321658 32.253986 34.74846
2004-03-24 11:17:24 51°27.208 3°6.466 7.142396 3.306177 32.161021 42.265657
2004-03-24 11:18:24 51°27.332 3°6.164 7.129011 3.284797 32.016608 49.546888
2004-03-24 11:19:24 51°27.448 3°5.849 7.175724 3.281006 31.97487 46.883845
2004-03-24 11:20:24 51°27.561 3°5.526 7.186699 3.283743 31.94107 37.074409
2004-03-24 11:21:24 51°27.675 3°5.201 7.212414 3.281321 31.916518 41.861144
2004-03-24 11:22:24 51°27.789 3°4.879 7.202913 3.278898 31.863925 38.490204
2004-03-24 11:23:24 51°27.904 3°4.556 7.148524 3.275002 31.868666 33.332665
2004-03-24 11:24:24 51°28.02 3°4.23 7.139847 3.27079 31.848955 46.883845
2004-03-24 11:25:24 51°28.137 3°3.902 7.134356 3.270895 31.860232 49.108665
2004-03-24 11:26:24 51°28.232 3°3.636 7.066362 3.276477 31.930656 49.614306
2004-03-24 11:27:24 51°28.262 3°3.504 7.034008 3.281112 32.055333 31.208973
2004-03-24 11:28:24 51°28.237 3°3.462 7.040932 3.283113 32.074637 29.624631
2004-03-24 11:29:25 51°28.208 3°3.428 7.017997 3.284693 32.109096 37.613759
2004-03-24 11:30:24 51°28.181 3°3.389 7.027968 3.28522 32.120327 57.401178
2004-03-24 11:31:24 51°28.151 3°3.334 7.025119 3.284904 32.114535 51.906546
2004-03-24 11:32:25 51°28.121 3°3.279 7.061061 3.28522 32.105332 45.097247
2004-03-24 11:33:24 51°28.094 3°3.24 7.082509 3.286904 32.091259 34.950717
2004-03-24 11:34:24 51°28.065 3°3.207 7.087514 3.286904 32.080236 45.872563
2004-03-24 11:35:24 51°28.037 3°3.18 7.096443 3.286799 32.071228 57.30005
2004-03-24 11:36:25 51°28.004 3°3.127 7.10027 3.286693 32.064584 47.254648
2004-03-24 11:37:24 51°27.925 3°2.834 7.130972 3.287009 32.059353 44.119674
2004-03-24 11:38:25 51°27.861 3°2.433 7.151073 3.286904 32.024457 26.388529
2004-03-24 11:39:24 51°27.825 3°2.033 7.149945 3.283955 31.986349 39.029554
2004-03-24 11:40:24 51°27.784 3°1.627 7.141857 3.282375 31.980256 52.142512
2004-03-24 11:41:24 51°27.743 3°1.22 7.160974 3.28069 31.957365 31.37752
2004-03-24 11:42:24 51°27.703 3°0.812 7.188414 3.283217 31.959613 38.490204
2004-03-24 11:43:24 51°27.661 3°0.402 7.215548 3.287008 31.970017 39.198101
2004-03-24 11:44:24 51°27.618 2°59.993 7.21354 3.288377 31.980869 37.512631
2004-03-24 11:45:24 51°27.557 2°59.589 7.20306 3.287429 31.965184 47.861418
2004-03-24 11:46:24 51°27.496 2°59.185 7.176655 3.28606 31.969175 36.771024
2004-03-24 11:47:24 51°27.436 2°58.783 7.183417 3.285429 31.980345 42.805007
2004-03-24 11:48:24 51°27.376 2°58.379 7.188904 3.291432 32.042768 36.973281
2004-03-24 11:49:24 51°27.315 2°57.977 7.258675 3.315445 32.259418 33.265247
2004-03-24 11:50:24 51°27.255 2°57.577 7.293703 3.340407 32.486017 47.72658
2004-03-24 11:51:24 51°27.193 2°57.176 7.333307 3.361051 32.668953 43.378067
2004-03-24 11:52:24 51°27.132 2°56.776 7.351732 3.373586 32.776204 42.906136
2004-03-24 11:53:24 51°27.071 2°56.371 7.357302 3.379063 32.820079 35.995708
2004-03-24 11:54:25 51°27.01 2°55.96 7.375036 3.378431 32.80768 31.883161
2004-03-24 11:55:24 51°26.953 2°55.563 7.396134 3.3798 32.808868 54.603298
2004-03-24 11:56:24 51°26.901 2°55.157 7.400382 3.392019 32.929315 40.344221
2004-03-24 11:57:24 51°26.85 2°54.751 7.429184 3.387911 32.869878 38.220529
2004-03-24 11:58:24 51°26.797 2°54.345 7.406436 3.396127 32.95916 42.737589
2004-03-24 11:59:24 51°26.747 2°53.936 7.406046 3.396548 32.969306 40.647606
2004-03-24 12:00:24 51°26.697 2°53.529 7.40795 3.393809 32.938201 53.659435
2004-03-24 12:01:25 51°26.645 2°53.113 7.440798 3.38475 32.827083 35.490067
2004-03-24 12:02:25 51°26.593 2°52.704 7.491526 3.384855 32.781247 52.8167
2004-03-24 12:03:24 51°26.544 2°52.307 7.495622 3.404974 32.967991 34.512494
2004-03-24 12:04:24 51°26.494 2°51.908 7.498645 3.432784 33.263837 32.995571
2004-03-24 12:05:25 51°26.453 2°51.513 7.415565 3.466707 33.679708 32.894443
2004-03-24 12:06:24 51°26.42 2°51.137 7.395939 3.481983 33.889057 51.737999
2004-03-24 12:07:24 51°26.383 2°50.755 7.389248 3.486724 33.950237 37.209247
2004-03-24 12:08:24 51°26.347 2°50.376 7.383534 3.489147 33.984721 36.737315
2004-03-24 12:09:24 51°26.31 2°49.996 7.380067 3.490201 33.998605 38.557623
2004-03-24 12:10:24 51°26.264 2°49.618 7.387539 3.490622 33.999032 42.569042
2004-03-24 12:11:24 51°26.216 2°49.237 7.390713 3.492519 34.014596 35.591195
2004-03-24 12:12:24 51°26.115 2°48.899 7.395304 3.496206 34.057824 32.287674
2004-03-24 12:13:24 51°26.009 2°48.659 7.391934 3.500947 34.10501 36.636187
2004-03-24 12:14:24 51°26.019 2°48.526 7.374449 3.506109 34.163405 28.343674
2004-03-24 12:15:24 51°26.021 2°48.482 7.374547 3.506742 34.188545 41.254375
2004-03-24 12:16:25 51°26.012 2°48.457 7.37103 3.506953 34.191661 37.681178
2004-03-24 12:17:24 51°26.01 2°48.441 7.373473 3.507374 34.196228 30.26511
2004-03-24 12:18:24 51°26.006 2°48.438 7.37274 3.507058 34.193635 50.119947
2004-03-24 12:19:24 51°26 2°48.443 7.396183 3.509165 34.193173 48.569315
2004-03-24 12:20:24 51°25.992 2°48.454 7.381532 3.508743 34.193598 31.647195
2004-03-24 12:21:24 51°25.982 2°48.459 7.378064 3.507901 34.193616 36.872153
2004-03-24 12:22:24 51°25.969 2°48.464 7.372544 3.507374 34.191236 53.187503
2004-03-24 12:23:24 51°25.953 2°48.466 7.379236 3.507479 34.189882 39.096973
2004-03-24 12:24:24 51°25.954 2°48.517 7.393253 3.508111 34.188413 48.704153
2004-03-24 12:25:25 51°25.843 2°48.624 7.394522 3.508743 34.183621 49.344631
2004-03-24 12:26:24 51°25.709 2°48.403 7.408584 3.506215 34.142957 41.355503
2004-03-24 12:27:24 51°25.603 2°48.063 7.37528 3.508217 34.185397 42.130819
2004-03-24 12:28:24 51°25.511 2°47.709 7.379334 3.510956 34.235886 38.085691
2004-03-24 12:29:24 51°25.413 2°47.363 7.36082 3.512536 34.254684 44.288221
2004-03-24 12:30:24 51°25.317 2°47.015 7.361748 3.513695 34.270585 33.164118
2004-03-24 12:31:24 51°25.219 2°46.671 7.355836 3.51496 34.290971 39.467777
2004-03-24 12:32:24 51°25.123 2°46.326 7.348653 3.515171 34.298267 59.727127
2004-03-24 12:33:24 51°25.026 2°45.984 7.342838 3.515171 34.302443 34.310238
2004-03-24 12:34:25 51°24.926 2°45.633 7.337755 3.51496 34.303499 53.996529
2004-03-24 12:35:25 51°24.831 2°45.289 7.332672 3.514328 34.309176 38.1194
2004-03-24 12:36:24 51°24.736 2°44.952 7.324019 3.514012 34.31327 36.197965
2004-03-24 12:37:24 51°24.639 2°44.613 7.314242 3.513801 34.315164 41.254375
2004-03-24 12:38:24 51°24.544 2°44.275 7.310575 3.514012 34.321635 42.805007
2004-03-24 12:39:24 51°24.447 2°43.938 7.314046 3.514328 34.329251 32.591059
2004-03-24 12:40:24 51°24.352 2°43.602 7.306027 3.514644 34.33687 38.523913
2004-03-24 12:41:24 51°24.258 2°43.265 7.306223 3.515698 34.347475 54.906683
2004-03-24 12:42:24 51°24.146 2°42.946 7.304951 3.51633 34.350991 44.119674
2004-03-24 12:43:24 51°24.033 2°42.625 7.309645 3.516857 34.361739 45.535469
2004-03-24 12:44:24 51°23.908 2°42.316 7.308032 3.517489 34.367768 44.018546
2004-03-24 12:45:25 51°23.768 2°42.013 7.306418 3.518226 34.376617 39.332939
2004-03-24 12:46:24 51°23.627 2°41.728 7.30187 3.518016 34.37852 41.995982
2004-03-24 12:47:24 51°23.479 2°41.445 7.305 3.518332 34.382793 46.378204
2004-03-24 12:48:24 51°23.33 2°41.166 7.296833 3.51928 34.38974 42.434204
2004-03-24 12:49:25 51°23.18 2°40.886 7.292432 3.520018 34.400269 52.412187
2004-03-24 12:50:24 51°23.035 2°40.613 7.296295 3.520966 34.411412 35.018136
2004-03-24 12:51:24 51°22.895 2°40.323 7.289008 3.520966 34.418967 55.007811
2004-03-24 12:52:24 51°22.765 2°40.024 7.287002 3.521914 34.429273 40.917281
2004-03-24 12:53:24 51°22.64 2°39.722 7.279371 3.52202 34.437139 43.984836
2004-03-24 12:54:25 51°22.52 2°39.413 7.284214 3.522757 34.446838 44.018546
2004-03-24 12:55:24 51°22.408 2°39.113 7.277757 3.523284 34.455929 42.838717
2004-03-24 12:56:25 51°22.299 2°38.794 7.27169 3.523179 34.457306 41.153247
2004-03-24 12:57:24 51°22.202 2°38.483 7.2826 3.523284 34.462658 44.32193
2004-03-24 12:58:25 51°22.101 2°38.159 7.273696 3.523495 34.456538 43.445486
2004-03-24 12:59:25 51°21.999 2°37.848 7.287736 3.523811 34.461657 44.726443
2004-03-24 13:00:25 51°21.902 2°37.531 7.293214 3.525602 34.472721 40.243093
2004-03-24 13:01:25 51°21.806 2°37.217 7.304022 3.526234 34.475387 51.030101
2004-03-24 13:02:25 51°21.716 2°36.898 7.305783 3.527182 34.475603 44.119674
2004-03-24 13:03:24 51°21.628 2°36.588 7.304902 3.52655 34.466211 37.175537
2004-03-24 13:04:24 51°21.538 2°36.271 7.312677 3.52655 34.466211 40.37793
2004-03-24 13:05:24 51°21.447 2°35.959 7.311992 3.526971 34.464908 41.288084
2004-03-24 13:06:25 51°21.357 2°35.638 7.316637 3.526866 34.459562 43.175811
2004-03-24 13:07:25 51°21.27 2°35.326 7.320597 3.526339 34.45048 35.557486
2004-03-24 13:08:24 51°21.186 2°35.015 7.332769 3.525391 34.436822 34.411366
2004-03-24 13:09:24 51°21.097 2°34.706 7.334089 3.524758 34.427439 42.501623
2004-03-24 13:10:25 51°21.009 2°34.39 7.32837 3.525074 34.426676 41.52405
2004-03-24 13:11:25 51°20.944 2°34.064 7.331792 3.524337 34.416991 41.658888
2004-03-24 13:12:24 51°20.881 2°33.745 7.334382 3.524653 34.417907 33.130409
2004-03-24 13:13:24 51°20.815 2°33.421 7.333796 3.524442 34.413942 40.613896
2004-03-24 13:14:24 51°20.75 2°33.098 7.312628 3.524548 34.42599 51.09752
2004-03-24 13:15:24 51°20.683 2°32.775 7.304022 3.523916 34.43591 43.344358
2004-03-24 13:16:24 51°20.615 2°32.454 7.319864 3.52381 34.433926 35.759742
2004-03-24 13:17:25 51°20.547 2°32.127 7.343962 3.525074 34.42416 35.456358
2004-03-24 13:18:25 51°20.478 2°31.81 7.359794 3.52539 34.412499 33.0967
2004-03-24 13:19:25 51°20.409 2°31.498 7.346894 3.525496 34.414481 41.288084
2004-03-24 13:20:24 51°20.344 2°31.19 7.352758 3.525812 34.415397 41.995982
2004-03-24 13:21:25 51°20.273 2°30.879 7.355054 3.526865 34.420126 48.670443
2004-03-24 13:22:24 51°20.206 2°30.58 7.361406 3.527603 34.424777 47.18723
2004-03-24 13:23:24 51°20.144 2°30.312 7.365852 3.52834 34.430265 45.265794
2004-03-24 13:24:24 51°20.096 2°30.151 7.364826 3.528656 34.43118 27.838033
2004-03-24 13:25:24 51°20.071 2°30.052 7.365119 3.528972 34.430419 38.759879
2004-03-24 13:26:25 51°20.051 2°29.984 7.363507 3.528656 34.434532 40.175674
2004-03-24 13:27:25 51°20.034 2°29.951 7.365754 3.529183 34.433543 51.67058
2004-03-24 13:28:24 51°20.035 2°29.976 7.370395 3.52971 34.437581 46.074819
2004-03-24 13:29:25 51°20.042 2°29.992 7.378259 3.530026 34.440172 47.018683
2004-03-24 13:30:24 51°20.046 2°29.999 7.377673 3.530869 34.440934 56.086512
2004-03-24 13:31:24 51°20.044 2°30.006 7.370297 3.530658 34.442001 39.164392
2004-03-24 13:32:25 51°20.034 2°30.021 7.375182 3.530237 34.438267 36.669896
2004-03-24 13:33:24 51°20.028 2°30.048 7.373131 3.530553 34.44002 44.89499
2004-03-24 13:34:25 51°20.015 2°30.07 7.371128 3.530974 34.447106 44.187093
2004-03-24 13:35:25 51°19.922 2°30.162 7.365852 3.529499 34.440325 32.119127
2004-03-24 13:36:25 51°19.782 2°30.476 7.374547 3.530763 34.442306 45.602888
2004-03-24 13:37:25 51°19.634 2°30.801 7.372886 3.530026 34.438496 39.83858
2004-03-24 13:38:24 51°19.49 2°31.116 7.350461 3.528446 34.433084 40.209383
2004-03-24 13:39:24 51°19.344 2°31.427 7.346112 3.525812 34.419588 44.254512
2004-03-24 13:40:25 51°19.201 2°31.739 7.34274 3.523705 34.401745 51.09752
2004-03-24 13:41:25 51°19.049 2°32.033 7.340981 3.523283 34.391306 46.782717
2004-03-24 13:42:24 51°18.903 2°32.326 7.319864 3.522862 34.403491 37.00699
2004-03-24 13:43:25 51°18.747 2°32.624 7.324459 3.522757 34.410732 36.568768
2004-03-24 13:44:25 51°18.597 2°32.92 7.340345 3.522862 34.3993 38.1194
2004-03-24 13:45:24 51°18.447 2°33.209 7.374352 3.524126 34.389565 43.310648
2004-03-24 13:46:24 51°18.294 2°33.506 7.384218 3.526128 34.39119 39.063264
2004-03-24 13:47:25 51°18.139 2°33.815 7.383534 3.525601 34.380459 43.984836
2004-03-24 13:48:25 51°17.989 2°34.12 7.39379 3.525285 34.373687 47.928836
2004-03-24 13:49:24 51°17.847 2°34.427 7.393155 3.525811 34.373545 38.051982
2004-03-24 13:50:24 51°17.701 2°34.726 7.393595 3.526443 34.381234 37.175537
2004-03-24 13:51:24 51°17.553 2°35.042 7.387832 3.526549 34.382376 53.187503
2004-03-24 13:52:24 51°17.403 2°35.348 7.390665 3.525495 34.377644 55.311195
2004-03-24 13:53:24 51°17.249 2°35.655 7.390567 3.525285 34.371179 47.659161
2004-03-24 13:54:24 51°17.095 2°35.962 7.396915 3.524336 34.3609 34.20911
2004-03-24 13:55:25 51°16.945 2°36.268 7.397208 3.524126 34.353602 39.973418
2004-03-24 13:56:24 51°16.802 2°36.563 7.407071 3.524652 34.352629 41.321794
2004-03-24 13:57:24 51°16.704 2°36.753 7.42113 3.524441 34.335319 41.153247
2004-03-24 13:58:25 51°16.654 2°36.756 7.433722 3.523809 34.326804 51.636871
2004-03-24 13:59:24 51°16.642 2°36.755 7.429623 3.523598 34.318684 49.479469
2004-03-24 14:00:24 51°16.645 2°36.765 7.422497 3.522545 34.308942 49.041247
2004-03-24 14:01:24 51°16.653 2°36.781 7.429672 3.523072 34.312146 45.46805
2004-03-24 14:02:25 51°16.662 2°36.804 7.424254 3.523072 34.312979 53.8954
2004-03-24 14:03:24 51°16.673 2°36.831 7.428891 3.522756 34.31039 44.187093
2004-03-24 14:04:24 51°16.683 2°36.86 7.433234 3.522861 34.309031 45.602888
2004-03-24 14:05:25 51°16.694 2°36.89 7.421911 3.522966 34.311005 54.637007
2004-03-24 14:06:25 51°16.704 2°36.921 7.424449 3.523072 34.310479 46.647879
2004-03-24 14:07:24 51°16.715 2°36.95 7.426353 3.523072 34.310479 42.265657
2004-03-24 14:08:24 51°16.727 2°36.972 7.431575 3.523072 34.307145 40.074546
2004-03-24 14:09:24 51°16.741 2°36.985 7.435333 3.523177 34.305786 49.546888
2004-03-24 14:10:25 51°16.752 2°36.973 7.429916 3.523071 34.303812 57.670853
2004-03-24 14:11:24 51°16.761 2°36.961 7.424254 3.523282 34.311093 46.951264
2004-03-24 14:12:25 51°16.773 2°36.965 7.423864 3.523177 34.309119 59.727127
2004-03-24 14:13:24 51°16.786 2°36.976 7.420008 3.522545 34.306442 44.35564
2004-03-24 14:14:24 51°16.774 2°36.95 7.420056 3.522545 34.309776 48.771571
2004-03-24 14:15:24 51°16.665 2°37.026 7.426694 3.522229 34.311355 43.445486
2004-03-24 14:16:24 51°16.46 2°37.094 7.422985 3.522229 34.302186 62.895811
2004-03-24 14:17:24 51°16.249 2°37.155 7.419861 3.520648 34.300909 46.647879
2004-03-24 14:18:25 51°16.034 2°37.244 7.406827 3.517909 34.283739 50.052529
2004-03-24 14:19:25 51°15.825 2°37.372 7.397843 3.515275 34.263535 43.479195
2004-03-24 14:20:25 51°15.615 2°37.515 7.413955 3.515486 34.247494 43.142101
2004-03-24 14:21:25 51°15.407 2°37.681 7.434503 3.517066 34.245464 47.962546
2004-03-24 14:22:24 51°15.208 2°37.863 7.454069 3.517909 34.24211 36.973281
2004-03-24 14:23:25 51°15.001 2°38.062 7.44963 3.518646 34.241776 67.412871
2004-03-24 14:24:24 51°14.805 2°38.254 7.459484 3.520121 34.251082 50.625589
2004-03-24 14:25:25 51°14.597 2°38.442 7.462802 3.52128 34.25198 53.693144
2004-03-24 14:26:25 51°14.393 2°38.604 7.468557 3.520437 34.248682 53.086375
2004-03-24 14:27:25 51°14.182 2°38.712 7.485626 3.520016 34.242462 44.288221
2004-03-24 14:28:25 51°13.967 2°38.726 7.527841 3.520437 34.203034 49.580597
2004-03-24 14:29:24 51°13.764 2°38.634 7.565108 3.522438 34.194 52.142512
2004-03-24 14:30:24 51°13.564 2°38.504 7.582833 3.523491 34.177242 41.355503
2004-03-24 14:31:25 51°13.364 2°38.376 7.579084 3.525809 34.187355 42.939845
2004-03-24 14:32:25 51°13.166 2°38.245 7.583125 3.524756 34.185915 54.299913
2004-03-24 14:33:24 51°12.971 2°38.121 7.556682 3.524334 34.194602 40.344221
2004-03-24 14:34:25 51°12.766 2°37.999 7.549327 3.523808 34.197193 53.457178
2004-03-24 14:35:25 51°12.571 2°37.859 7.542702 3.523176 34.199476 34.310238
2004-03-24 14:36:24 51°12.377 2°37.721 7.54353 3.523702 34.203505 50.086238
2004-03-24 14:37:24 51°12.18 2°37.579 7.539389 3.523913 34.206607 43.546614
2004-03-24 14:38:25 51°11.981 2°37.432 7.547037 3.524124 34.201431 39.198101
2004-03-24 14:39:25 51°11.786 2°37.29 7.544504 3.52444 34.20898 43.276939
2004-03-24 14:40:24 51°11.592 2°37.154 7.535734 3.523702 34.205161 40.040836
2004-03-24 14:41:24 51°11.395 2°37.014 7.521798 3.522649 34.204555 44.760153
2004-03-24 14:42:24 51°11.2 2°36.883 7.534321 3.521174 34.193601 43.20952
2004-03-24 14:43:25 51°11.001 2°36.745 7.53973 3.521385 34.185941 62.92952
2004-03-24 14:44:25 51°10.805 2°36.606 7.535686 3.523281 34.194819 45.164665
2004-03-24 14:45:25 51°10.608 2°36.491 7.502008 3.52149 34.201154 40.276802
2004-03-24 14:46:25 51°10.409 2°36.384 7.505421 3.519489 34.197765 41.153247
2004-03-24 14:47:25 51°10.195 2°36.382 7.516875 3.519805 34.197864 55.816836
2004-03-24 14:48:25 51°10.005 2°36.564 7.629314 3.52307 34.152048 36.669896
2004-03-24 14:49:24 51°9.971 2°36.928 7.625178 3.522437 34.115553 28.647059
2004-03-24 14:50:24 51°10.05 2°37.303 7.6298 3.520435 34.089062 58.581007
2004-03-24 14:51:24 51°10.146 2°37.675 7.629752 3.521384 34.099269 41.591469
2004-03-24 14:52:24 51°10.224 2°38.058 7.621334 3.521489 34.107814 47.996255
2004-03-24 14:53:24 51°10.297 2°38.444 7.615787 3.522543 34.119159 34.681042
2004-03-24 14:54:24 51°10.372 2°38.831 7.609314 3.522964 34.131939 36.669896
2004-03-24 14:55:24 51°10.443 2°39.216 7.607075 3.523807 34.148441 44.32193
2004-03-24 14:56:25 51°10.522 2°39.606 7.613354 3.522753 34.133792 39.501486
2004-03-24 14:57:25 51°10.605 2°39.985 7.626054 3.520962 34.102966 55.479742
2004-03-24 14:58:24 51°10.689 2°40.358 7.621626 3.519803 34.083903 35.961999
2004-03-24 14:59:25 51°10.775 2°40.742 7.629119 3.519698 34.083592 58.749554
2004-03-24 15:00:24 51°10.856 2°41.118 7.632573 3.519487 34.0805 32.253965
2004-03-24 15:01:25 51°10.935 2°41.508 7.620166 3.519171 34.077098 67.379161
2004-03-24 15:02:25 51°11.01 2°41.85 7.623816 3.519276 34.079055 41.153247
2004-03-24 15:03:25 51°11.082 2°41.995 7.621723 3.520119 34.090598 49.715435
2004-03-24 15:04:25 51°11.09 2°42.037 7.626346 3.521384 34.097623 50.928973
2004-03-24 15:05:24 51°11.088 2°42.069 7.630676 3.52191 34.104117 40.647606
2004-03-24 15:06:25 51°11.08 2°42.101 7.624935 3.521384 34.101739 49.546888
2004-03-24 15:07:25 51°11.071 2°42.136 7.620069 3.521594 34.104007 38.355366
2004-03-24 15:08:25 51°11.064 2°42.175 7.615446 3.520962 34.101319 60.873247
2004-03-24 15:09:25 51°11.061 2°42.215 7.616079 3.520435 34.095647 61.412597
2004-03-24 15:10:24 51°11.058 2°42.206 7.616614 3.520119 34.093891 62.996939
2004-03-24 15:11:24 51°10.981 2°42.209 7.628341 3.519382 34.085127 50.187366
2004-03-24 15:12:24 51°10.966 2°42.401 7.631016 3.519276 34.073296 43.445486
2004-03-24 15:13:25 51°11.065 2°42.704 7.628535 3.519487 34.071452 43.175811
2004-03-24 15:14:25 51°11.149 2°43.074 7.615884 3.52033 34.087105 45.973691
2004-03-24 15:15:24 51°11.226 2°43.445 7.605031 3.520119 34.099655 46.883845
2004-03-24 15:16:24 51°11.305 2°43.818 7.602062 3.521068 34.113162 61.008084
2004-03-24 15:17:25 51°11.385 2°44.197 7.602062 3.521173 34.116769 40.276802
2004-03-24 15:18:25 51°11.464 2°44.568 7.606491 3.521173 34.120066 39.063264
2004-03-24 15:19:24 51°11.545 2°44.932 7.609509 3.521384 34.120687 39.973418
2004-03-24 15:20:25 51°11.628 2°45.311 7.611018 3.522227 34.12482 52.176221
2004-03-24 15:21:25 51°11.711 2°45.685 7.610434 3.522753 34.128021 37.782306
2004-03-24 15:22:24 51°11.794 2°46.052 7.615592 3.523069 34.129776 37.445212
2004-03-24 15:23:24 51°11.883 2°46.42 7.61895 3.523175 34.129262 37.546341
2004-03-24 15:24:25 51°11.977 2°46.796 7.625421 3.523807 34.125356 44.423059
2004-03-24 15:25:25 51°12.076 2°47.16 7.630822 3.524018 34.130097 53.052665
2004-03-24 15:26:24 51°12.185 2°47.511 7.635152 3.524123 34.120522 50.018819
2004-03-24 15:27:25 51°12.298 2°47.87 7.661222 3.523807 34.113003 38.287947
2004-03-24 15:28:24 51°12.407 2°48.22 7.701863 3.523069 34.062323 47.760289
2004-03-24 15:29:24 51°12.52 2°48.571 7.703224 3.522858 34.060059 40.681315
2004-03-24 15:30:24 51°12.636 2°48.919 7.725283 3.520329 34.001747 55.479742
2004-03-24 15:31:25 51°12.754 2°49.273 7.721056 3.521066 34.005572 40.782443
2004-03-24 15:32:25 51°12.871 2°49.621 7.739467 3.521277 33.99965 38.995845
2004-03-24 15:33:25 51°12.988 2°49.967 7.76365 3.520961 33.985625 53.052665
2004-03-24 15:34:25 51°13.104 2°50.317 7.789134 3.518642 33.919959 50.052529
2004-03-24 15:35:24 51°13.22 2°50.662 7.766271 3.52096 33.947244 33.164118
2004-03-24 15:36:25 51°13.336 2°51.017 7.748451 3.524648 34.014557 39.434067
2004-03-24 15:37:25 51°13.454 2°51.365 7.742624 3.524227 34.019035 51.603161
2004-03-24 15:38:24 51°13.569 2°51.707 7.788746 3.517062 33.914432 39.164392
2004-03-24 15:39:25 51°13.688 2°52.062 7.787047 3.517062 33.90221 45.872563
2004-03-24 15:40:24 51°13.798 2°52.408 7.799713 3.514112 33.858404 43.074683
2004-03-24 15:41:25 51°13.902 2°52.773 7.814171 3.513585 33.842198 45.198375
2004-03-24 15:42:24 51°14 2°53.122 7.841963 3.510108 33.792812 40.748734
2004-03-24 15:43:25 51°14.1 2°53.484 7.880551 3.504734 33.693289 41.995982
2004-03-24 15:44:24 51°14.198 2°53.834 7.961191 3.503891 33.643174 42.973554
2004-03-24 15:45:24 51°14.292 2°54.191 8.027419 3.504312 33.564953 53.187503
2004-03-24 15:46:25 51°14.366 2°54.56 8.064688 3.502415 33.497609 59.187777
2004-03-24 15:47:25 51°14.375 2°54.917 8.087251 3.497252 33.412501 55.61458
2004-03-24 15:48:25 51°14.291 2°55.193 8.197346 3.490088 33.326945 42.09711
2004-03-24 15:49:25 51°14.176 2°55.371 8.262994 3.328284 31.470047 58.277623
2004-03-24 15:50:25 51°14.055 2°55.464 8.292085 3.250874 30.655734 55.176358